Time;durP1;ratioP1;P1;durP2;ratioP2;P2;SDS_P1;SDS_P2;PMS_P1;PMS_P2;Temp;Humidity;BMP_temperature;BMP_pressure;BME280_temperature;BME280_humidity;BME280_pressure;Samples;Min_cycle;Max_cycle;Signal;HPM_P1;HPM_P2
2023/07/19 00:01:35;;;;;;;9.35;3.53;;;17.20;99.90;;;;;;4923520;29;20485;-70
2023/07/19 00:04:01;;;;;;;7.43;3.25;;;17.20;99.90;;;;;;4925660;29;20032;-71
2023/07/19 00:06:27;;;;;;;6.57;3.47;;;17.20;99.90;;;;;;4924672;29;20052;-71
2023/07/19 00:08:52;;;;;;;9.80;3.30;;;17.30;99.90;;;;;;4922811;29;20106;-72
2023/07/19 00:11:18;;;;;;;9.27;3.25;;;17.30;99.90;;;;;;4925952;29;20032;-71
2023/07/19 00:13:44;;;;;;;6.03;3.08;;;17.30;99.90;;;;;;4924674;29;20102;-72
2023/07/19 00:16:09;;;;;;;9.07;3.22;;;17.30;99.90;;;;;;4927914;29;20027;-71
2023/07/19 00:18:35;;;;;;;7.22;3.28;;;17.30;99.90;;;;;;4929534;29;20098;-71
2023/07/19 00:21:00;;;;;;;7.35;3.45;;;17.40;99.90;;;;;;4928370;29;20101;-71
2023/07/19 00:23:26;;;;;;;8.27;3.80;;;17.40;99.90;;;;;;4928530;29;20099;-71
2023/07/19 00:25:52;;;;;;;10.43;2.95;;;17.40;99.90;;;;;;4929033;29;20111;-72
2023/07/19 00:28:17;;;;;;;3.28;2.45;;;17.40;99.90;;;;;;4927263;29;20107;-70
2023/07/19 00:30:43;;;;;;;8.00;3.28;;;17.40;99.90;;;;;;4928643;29;20035;-71
2023/07/19 00:33:08;;;;;;;8.43;3.40;;;17.40;99.90;;;;;;4929120;29;20059;-71
2023/07/19 00:35:40;;;;;;;8.80;3.22;;;17.40;99.90;;;;;;4927123;29;20047;-71
2023/07/19 00:38:06;;;;;;;9.07;3.38;;;17.40;99.90;;;;;;4928200;29;20052;-71
2023/07/19 00:40:32;;;;;;;8.25;3.63;;;17.40;99.90;;;;;;4928681;29;20039;-71
2023/07/19 00:43:11;;;;;;;7.47;3.45;;;17.40;99.90;;;;;;4928103;29;20036;-71
2023/07/19 00:45:44;;;;;;;8.82;3.88;;;17.40;99.90;;;;;;4926693;29;20511;-71
2023/07/19 00:48:10;;;;;;;7.32;3.35;;;17.40;99.90;;;;;;4927668;29;20040;-71
2023/07/19 00:50:36;;;;;;;9.90;3.20;;;17.40;99.90;;;;;;4928981;29;20031;-70
2023/07/19 00:53:02;;;;;;;8.20;3.80;;;17.40;99.90;;;;;;4927907;29;20076;-70
2023/07/19 00:55:28;;;;;;;11.05;4.43;;;17.40;99.90;;;;;;4927659;29;20499;-70
2023/07/19 00:57:54;;;;;;;9.90;3.70;;;17.40;99.90;;;;;;4928054;29;20040;-71
2023/07/19 01:00:21;;;;;;;11.30;3.90;;;17.40;99.90;;;;;;4926915;29;20024;-71
2023/07/19 01:02:48;;;;;;;11.70;3.75;;;17.30;99.90;;;;;;4927732;29;20024;-71
2023/07/19 01:05:13;;;;;;;11.63;4.00;;;17.30;99.90;;;;;;4929077;29;20471;-72
2023/07/19 01:07:39;;;;;;;9.85;3.80;;;17.30;99.90;;;;;;4937613;29;20082;-72
2023/07/19 01:10:06;;;;;;;8.38;3.50;;;17.30;99.90;;;;;;4956401;29;20027;-71
2023/07/19 01:12:32;;;;;;;9.13;4.22;;;17.30;99.90;;;;;;4955561;28;20046;-71
2023/07/19 01:14:57;;;;;;;13.05;4.32;;;17.40;99.90;;;;;;4956571;29;20027;-71
2023/07/19 01:17:23;;;;;;;7.65;3.70;;;17.40;99.90;;;;;;4956171;29;20030;-70
2023/07/19 01:19:49;;;;;;;13.90;4.95;;;17.40;99.90;;;;;;4956579;28;20179;-71
2023/07/19 01:22:14;;;;;;;8.93;3.22;;;17.40;99.90;;;;;;4956617;29;20064;-71
2023/07/19 01:24:40;;;;;;;11.63;3.60;;;17.50;99.90;;;;;;4956158;28;20049;-70
2023/07/19 01:27:06;;;;;;;9.73;3.50;;;17.50;99.90;;;;;;4953991;28;20027;-70
2023/07/19 01:29:32;;;;;;;9.00;3.33;;;17.50;99.90;;;;;;4956507;29;20023;-69
2023/07/19 01:31:57;;;;;;;12.05;4.35;;;17.50;99.90;;;;;;4956256;29;20070;-69
2023/07/19 01:34:23;;;;;;;7.30;3.25;;;17.50;99.90;;;;;;4956227;29;20419;-68
2023/07/19 01:36:48;;;;;;;11.25;3.72;;;17.50;99.90;;;;;;4956311;29;20372;-68
2023/07/19 01:39:14;;;;;;;9.65;3.80;;;17.50;99.90;;;;;;4955802;29;20062;-67
2023/07/19 01:41:39;;;;;;;9.55;4.03;;;17.50;99.90;;;;;;4956027;29;20035;-67
2023/07/19 01:44:05;;;;;;;8.40;3.58;;;17.40;99.90;;;;;;4956510;29;20110;-67
2023/07/19 01:46:30;;;;;;;10.38;3.60;;;17.40;99.90;;;;;;4956027;29;20405;-67
2023/07/19 01:48:56;;;;;;;6.75;3.38;;;17.40;99.90;;;;;;4955847;29;20518;-67
2023/07/19 01:51:22;;;;;;;7.80;4.07;;;17.40;99.90;;;;;;4956133;29;20027;-67
2023/07/19 01:53:47;;;;;;;8.23;3.42;;;17.40;99.90;;;;;;4956062;29;20023;-68
2023/07/19 01:56:14;;;;;;;11.88;4.07;;;17.30;99.90;;;;;;4955281;28;20089;-68
2023/07/19 01:58:39;;;;;;;9.15;3.58;;;17.30;99.90;;;;;;4955763;28;20133;-67
2023/07/19 02:01:05;;;;;;;8.65;3.58;;;17.30;99.90;;;;;;4955469;29;20106;-67
2023/07/19 02:03:30;;;;;;;10.75;3.88;;;17.30;99.90;;;;;;4955956;29;20443;-66
2023/07/19 02:05:58;;;;;;;11.55;3.72;;;17.30;99.90;;;;;;4955657;29;20530;-65
2023/07/19 02:08:23;;;;;;;11.25;3.67;;;17.30;99.90;;;;;;4955657;28;20054;-67
2023/07/19 02:10:49;;;;;;;13.73;4.68;;;17.30;99.90;;;;;;4955492;29;20464;-67
2023/07/19 02:13:14;;;;;;;10.10;3.65;;;17.20;99.90;;;;;;4955595;29;20187;-67
2023/07/19 02:15:40;;;;;;;10.00;4.10;;;17.20;99.90;;;;;;4955639;29;20118;-67
2023/07/19 02:18:05;;;;;;;8.10;4.07;;;17.10;99.90;;;;;;4955671;29;20035;-67
2023/07/19 02:20:31;;;;;;;12.65;3.97;;;17.00;99.90;;;;;;4955208;29;20035;-67
2023/07/19 02:22:56;;;;;;;10.30;3.65;;;17.00;99.90;;;;;;4953923;29;20031;-67
2023/07/19 02:25:22;;;;;;;8.90;3.70;;;17.00;99.90;;;;;;4953928;29;20106;-68
2023/07/19 02:27:47;;;;;;;10.30;4.00;;;16.90;99.90;;;;;;4955301;28;20031;-68
2023/07/19 02:30:13;;;;;;;7.75;3.47;;;16.80;99.90;;;;;;4955383;29;20053;-67
2023/07/19 02:32:39;;;;;;;13.05;4.07;;;16.80;99.90;;;;;;4955317;28;20066;-68
2023/07/19 02:35:04;;;;;;;13.02;3.83;;;16.70;99.90;;;;;;4955106;29;20063;-68
2023/07/19 02:37:30;;;;;;;7.50;3.50;;;16.70;99.90;;;;;;4954906;28;20110;-67
2023/07/19 02:39:56;;;;;;;10.65;3.88;;;16.70;99.90;;;;;;4954417;29;20059;-68
2023/07/19 02:42:21;;;;;;;10.95;4.25;;;16.70;99.90;;;;;;4954843;29;20031;-67
2023/07/19 02:44:48;;;;;;;10.27;3.92;;;16.70;99.90;;;;;;4955037;29;20059;-67
2023/07/19 02:47:13;;;;;;;9.25;3.70;;;16.70;99.90;;;;;;4954797;28;20020;-67
2023/07/19 02:49:41;;;;;;;10.88;3.70;;;16.70;99.90;;;;;;4954635;28;20023;-67
2023/07/19 02:52:07;;;;;;;7.25;3.65;;;16.70;99.90;;;;;;4954940;28;20078;-67
2023/07/19 02:54:33;;;;;;;11.73;3.53;;;16.70;99.90;;;;;;4954657;28;20031;-67
2023/07/19 02:56:58;;;;;;;9.50;3.75;;;16.70;99.90;;;;;;4947011;29;20028;-67
2023/07/19 02:59:24;;;;;;;7.97;3.22;;;16.70;99.90;;;;;;4954821;29;20039;-67
2023/07/19 03:01:49;;;;;;;11.90;3.47;;;16.60;99.90;;;;;;4954456;28;20030;-67
2023/07/19 03:04:15;;;;;;;11.40;4.00;;;16.60;99.90;;;;;;4954366;29;20031;-67
2023/07/19 03:06:40;;;;;;;10.25;3.42;;;16.60;99.90;;;;;;4954456;29;20043;-67
2023/07/19 03:09:06;;;;;;;7.40;3.40;;;16.60;99.90;;;;;;4953990;29;20468;-67
2023/07/19 03:11:32;;;;;;;9.93;3.78;;;16.60;99.90;;;;;;4954484;29;20491;-66
2023/07/19 03:13:58;;;;;;;10.38;3.90;;;16.50;99.90;;;;;;4954536;28;20070;-66
2023/07/19 03:16:23;;;;;;;10.02;3.88;;;16.50;99.90;;;;;;4954459;29;20106;-66
2023/07/19 03:18:49;;;;;;;10.98;3.85;;;16.50;99.90;;;;;;4954363;29;20050;-66
2023/07/19 03:21:14;;;;;;;7.50;3.60;;;16.60;99.90;;;;;;4954417;29;20024;-66
2023/07/19 03:23:40;;;;;;;9.07;3.85;;;16.60;99.90;;;;;;4954473;28;20024;-66
2023/07/19 03:26:07;;;;;;;8.68;3.55;;;16.60;99.90;;;;;;4954530;29;20035;-66
2023/07/19 03:28:33;;;;;;;9.00;3.53;;;16.60;99.90;;;;;;4954606;28;20042;-66
2023/07/19 03:30:58;;;;;;;11.10;3.53;;;16.60;99.90;;;;;;4954375;29;20032;-67
2023/07/19 03:33:25;;;;;;;11.95;3.90;;;16.70;99.90;;;;;;4954269;29;20081;-66
2023/07/19 03:35:51;;;;;;;8.38;3.60;;;16.60;99.90;;;;;;4954255;28;20118;-67
2023/07/19 03:38:18;;;;;;;10.95;4.07;;;16.60;99.90;;;;;;4953569;29;20130;-67
2023/07/19 03:40:43;;;;;;;10.27;3.92;;;16.70;99.90;;;;;;4954220;28;20110;-66
2023/07/19 03:43:09;;;;;;;7.22;3.65;;;16.70;99.90;;;;;;4954295;29;20110;-67
2023/07/19 03:45:35;;;;;;;8.85;3.58;;;16.70;99.90;;;;;;4954058;29;20074;-66
2023/07/19 03:48:00;;;;;;;7.47;3.17;;;16.70;99.90;;;;;;4953666;28;20105;-67
2023/07/19 03:50:26;;;;;;;6.13;2.90;;;16.70;99.90;;;;;;4934823;29;20535;-66
2023/07/19 03:52:51;;;;;;;8.07;3.13;;;16.70;99.90;;;;;;4934871;29;20526;-66
2023/07/19 03:55:17;;;;;;;7.00;3.00;;;16.70;99.90;;;;;;4934690;29;20383;-67
2023/07/19 03:57:42;;;;;;;11.25;2.95;;;16.70;99.90;;;;;;4934683;29;20041;-66
2023/07/19 04:00:09;;;;;;;5.85;2.70;;;16.70;99.90;;;;;;4934194;29;20031;-67
2023/07/19 04:02:34;;;;;;;7.78;3.47;;;16.70;99.90;;;;;;4935113;29;20034;-66
2023/07/19 04:05:00;;;;;;;6.93;3.05;;;16.70;99.90;;;;;;4935070;29;20031;-66
2023/07/19 04:07:26;;;;;;;7.25;3.03;;;16.70;99.90;;;;;;4934504;29;20046;-66
2023/07/19 04:09:52;;;;;;;7.93;2.63;;;16.70;99.90;;;;;;4934799;29;20472;-66
2023/07/19 04:12:18;;;;;;;7.70;3.08;;;16.70;99.90;;;;;;4932154;29;20044;-66
2023/07/19 04:14:43;;;;;;;6.32;3.22;;;16.80;99.90;;;;;;4928200;29;20024;-66
2023/07/19 04:17:10;;;;;;;6.85;2.55;;;16.80;99.90;;;;;;4924080;29;20036;-66
2023/07/19 04:19:36;;;;;;;9.98;2.83;;;16.80;99.90;;;;;;4923854;29;20051;-67
2023/07/19 04:22:01;;;;;;;6.03;2.80;;;16.80;99.90;;;;;;4925733;29;20372;-67
2023/07/19 04:24:27;;;;;;;7.80;3.00;;;16.80;99.90;;;;;;4924548;29;20036;-67
2023/07/19 04:26:53;;;;;;;6.50;2.53;;;16.90;99.90;;;;;;4924721;29;20027;-67
2023/07/19 04:29:19;;;;;;;7.50;2.53;;;17.00;99.90;;;;;;4926106;29;20376;-67
2023/07/19 04:31:45;;;;;;;10.93;2.95;;;17.00;99.90;;;;;;4924360;29;20457;-67
2023/07/19 04:34:11;;;;;;;8.02;2.60;;;17.00;99.90;;;;;;4924699;29;20043;-67
2023/07/19 04:36:36;;;;;;;5.38;2.40;;;17.00;99.90;;;;;;4924894;29;20044;-66
2023/07/19 04:39:02;;;;;;;5.70;2.42;;;17.10;99.90;;;;;;4923380;29;20079;-66
2023/07/19 04:41:28;;;;;;;6.70;2.22;;;17.10;99.90;;;;;;4925099;29;20027;-66
2023/07/19 04:43:53;;;;;;;8.05;2.05;;;17.20;99.90;;;;;;4924872;29;20028;-66
2023/07/19 04:46:20;;;;;;;7.38;2.40;;;17.30;99.90;;;;;;4923642;29;20028;-67
2023/07/19 04:48:45;;;;;;;9.30;3.33;;;17.40;99.90;;;;;;4925885;29;20025;-66
2023/07/19 04:51:11;;;;;;;5.05;2.08;;;17.40;99.90;;;;;;4924639;29;20038;-66
2023/07/19 04:53:36;;;;;;;6.35;2.35;;;17.50;99.90;;;;;;4933071;29;20031;-66
2023/07/19 04:56:02;;;;;;;5.38;2.25;;;17.50;99.90;;;;;;4934428;29;20040;-67
2023/07/19 04:58:28;;;;;;;6.28;2.25;;;17.60;99.90;;;;;;4934356;29;20035;-66
2023/07/19 05:00:53;;;;;;;4.22;2.17;;;17.70;99.90;;;;;;4936483;29;20028;-66
2023/07/19 05:03:19;;;;;;;7.45;2.35;;;17.70;99.90;;;;;;4938222;29;20043;-66
2023/07/19 05:05:47;;;;;;;4.93;2.30;;;17.80;99.90;;;;;;4937876;29;20032;-67
2023/07/19 05:08:13;;;;;;;6.90;3.08;;;17.90;99.90;;;;;;4938188;29;20051;-68
2023/07/19 05:10:39;;;;;;;7.07;2.72;;;18.00;99.90;;;;;;4937967;29;20380;-67
2023/07/19 05:13:05;;;;;;;8.80;2.63;;;18.00;99.90;;;;;;4938001;29;20035;-67
2023/07/19 05:15:32;;;;;;;8.25;2.78;;;18.10;99.90;;;;;;4937689;29;20032;-67
2023/07/19 05:17:59;;;;;;;3.50;2.03;;;18.20;99.90;;;;;;4937956;29;20051;-67
2023/07/19 05:20:26;;;;;;;4.93;2.00;;;18.30;99.90;;;;;;4937674;29;20024;-67
2023/07/19 05:22:51;;;;;;;5.35;2.08;;;18.30;99.90;;;;;;4937755;29;20027;-67
2023/07/19 05:25:17;;;;;;;7.90;3.20;;;18.40;99.90;;;;;;4937764;29;20027;-67
2023/07/19 05:27:43;;;;;;;9.85;3.03;;;18.50;99.90;;;;;;4937713;29;20035;-67
2023/07/19 05:30:09;;;;;;;3.25;2.10;;;18.60;99.90;;;;;;4937688;29;20102;-66
2023/07/19 05:32:35;;;;;;;4.70;1.92;;;18.70;99.90;;;;;;4937449;29;20024;-66
2023/07/19 05:35:00;;;;;;;5.68;1.80;;;18.80;99.90;;;;;;4937353;29;20042;-68
2023/07/19 05:37:27;;;;;;;5.60;2.67;;;18.90;99.90;;;;;;4937509;29;20038;-68
2023/07/19 05:39:53;;;;;;;6.13;2.42;;;19.00;99.90;;;;;;4937105;29;20055;-68
2023/07/19 05:42:18;;;;;;;7.50;3.47;;;19.10;99.90;;;;;;4937353;29;20171;-67
2023/07/19 05:44:44;;;;;;;6.93;2.58;;;19.10;99.90;;;;;;4937222;29;20029;-68
2023/07/19 05:47:10;;;;;;;5.97;2.60;;;19.20;99.90;;;;;;4937050;29;20040;-68
2023/07/19 05:49:35;;;;;;;8.00;2.95;;;19.20;99.90;;;;;;4936776;29;20467;-67
2023/07/19 05:52:01;;;;;;;6.38;2.38;;;19.20;99.90;;;;;;4937166;29;20030;-67
2023/07/19 05:54:26;;;;;;;12.23;4.68;;;19.30;99.90;;;;;;4936150;29;20042;-67
2023/07/19 05:56:52;;;;;;;5.97;2.33;;;19.30;99.90;;;;;;4936884;29;20040;-67
2023/07/19 05:59:18;;;;;;;10.40;3.85;;;19.40;99.90;;;;;;4936829;29;20087;-67
2023/07/19 06:01:43;;;;;;;10.05;3.53;;;19.40;99.90;;;;;;4937106;29;20408;-67
2023/07/19 06:04:09;;;;;;;4.43;2.13;;;19.40;99.90;;;;;;4936800;29;20035;-67
2023/07/19 06:06:35;;;;;;;7.40;2.67;;;19.50;99.90;;;;;;4937011;29;20039;-67
2023/07/19 06:09:05;;;;;;;3.90;1.90;;;19.70;99.90;;;;;;4936814;29;20392;-68
2023/07/19 06:11:32;;;;;;;8.43;3.90;;;20.00;99.90;;;;;;4936314;29;20036;-66
2023/07/19 06:13:58;;;;;;;8.82;2.20;;;20.70;99.90;;;;;;4937176;29;20035;-65
2023/07/19 06:16:25;;;;;;;6.60;2.10;;;21.80;99.90;;;;;;4936589;29;20031;-66
2023/07/19 06:18:50;;;;;;;6.38;2.50;;;23.20;99.90;;;;;;4936539;29;20051;-66
2023/07/19 06:21:16;;;;;;;7.97;2.75;;;24.30;99.90;;;;;;4936832;29;20453;-66
2023/07/19 06:23:42;;;;;;;6.78;3.25;;;25.00;99.90;;;;;;4936617;29;20028;-67
2023/07/19 06:26:07;;;;;;;11.57;2.80;;;25.20;99.90;;;;;;4936627;29;20039;-67
2023/07/19 06:28:35;;;;;;;4.88;1.60;;;25.20;99.90;;;;;;4936247;29;20039;-67
2023/07/19 06:31:01;;;;;;;4.93;1.90;;;25.10;99.90;;;;;;4936425;29;20039;-67
2023/07/19 06:33:28;;;;;;;8.20;3.13;;;25.00;99.90;;;;;;4936572;29;20159;-66
2023/07/19 06:35:54;;;;;;;4.97;1.70;;;25.10;99.90;;;;;;4936574;29;20042;-67
2023/07/19 06:38:20;;;;;;;7.95;1.50;;;25.10;99.90;;;;;;4936188;29;20063;-68
2023/07/19 06:40:45;;;;;;;7.97;3.30;;;25.10;99.90;;;;;;4936441;29;20024;-68
2023/07/19 06:43:11;;;;;;;5.93;1.95;;;25.20;99.90;;;;;;4936187;29;20107;-67
2023/07/19 06:45:36;;;;;;;7.18;3.42;;;25.60;99.90;;;;;;4935805;29;20027;-68
2023/07/19 06:48:02;;;;;;;4.90;1.33;;;26.40;99.20;;;;;;4936050;29;20129;-68
2023/07/19 06:50:28;;;;;;;6.72;2.97;;;27.60;98.00;;;;;;4936121;29;20063;-68
2023/07/19 06:52:54;;;;;;;11.18;3.53;;;27.90;96.80;;;;;;4936159;29;20031;-68
2023/07/19 06:55:19;;;;;;;12.48;3.53;;;27.80;97.10;;;;;;4935916;29;20043;-67
2023/07/19 06:57:45;;;;;;;8.15;2.35;;;27.50;97.50;;;;;;4936099;29;20032;-68
2023/07/19 07:00:11;;;;;;;9.77;2.40;;;27.20;96.30;;;;;;4935671;29;20082;-68
2023/07/19 07:02:37;;;;;;;5.60;1.85;;;26.80;96.60;;;;;;4936001;29;20114;-69
2023/07/19 07:05:03;;;;;;;8.80;3.45;;;26.30;96.70;;;;;;4936007;29;20114;-68
2023/07/19 07:07:28;;;;;;;9.32;2.42;;;25.80;97.80;;;;;;4935884;29;20035;-68
2023/07/19 07:09:54;;;;;;;6.82;2.55;;;25.40;98.00;;;;;;4935651;29;20051;-67
2023/07/19 07:12:19;;;;;;;6.47;2.65;;;25.10;98.70;;;;;;4935562;29;20040;-68
2023/07/19 07:14:45;;;;;;;6.60;2.92;;;24.90;99.40;;;;;;4935044;29;20027;-68
2023/07/19 07:17:10;;;;;;;9.38;2.88;;;24.90;99.90;;;;;;4935935;29;20035;-67
2023/07/19 07:19:36;;;;;;;6.97;2.50;;;25.00;99.90;;;;;;4935693;29;20043;-68
2023/07/19 07:22:02;;;;;;;12.25;3.65;;;25.30;99.90;;;;;;4935388;29;20039;-68
2023/07/19 07:24:27;;;;;;;6.63;1.58;;;25.70;99.90;;;;;;4934572;29;20032;-68
2023/07/19 07:26:53;;;;;;;4.28;2.38;;;26.10;98.30;;;;;;4927108;29;20031;-68
2023/07/19 07:29:18;;;;;;;6.72;2.38;;;26.10;98.60;;;;;;4935069;29;20035;-68
2023/07/19 07:31:44;;;;;;;7.72;3.50;;;26.10;98.90;;;;;;4935245;29;20474;-68
2023/07/19 07:34:10;;;;;;;5.18;2.20;;;26.10;99.00;;;;;;4935669;29;20499;-68
2023/07/19 07:36:36;;;;;;;8.05;3.05;;;26.10;98.00;;;;;;4934805;29;20429;-68
2023/07/19 07:39:02;;;;;;;11.57;4.05;;;26.20;98.80;;;;;;4934594;29;20144;-68
2023/07/19 07:41:27;;;;;;;6.45;2.25;;;26.30;99.10;;;;;;4935461;29;20032;-68
2023/07/19 07:43:53;;;;;;;7.80;2.05;;;26.50;99.30;;;;;;4935087;29;20063;-68
2023/07/19 07:46:18;;;;;;;6.47;2.15;;;26.90;98.20;;;;;;4935097;29;20055;-68
2023/07/19 07:48:44;;;;;;;9.75;3.40;;;27.30;97.20;;;;;;4935567;29;20080;-68
2023/07/19 07:51:11;;;;;;;6.43;1.92;;;27.10;96.50;;;;;;4934034;29;20036;-68
2023/07/19 07:53:37;;;;;;;7.80;3.03;;;26.70;97.30;;;;;;4935522;29;20028;-68
2023/07/19 07:56:03;;;;;;;5.88;1.58;;;26.30;97.40;;;;;;4935535;29;20434;-68
2023/07/19 07:58:28;;;;;;;9.70;2.40;;;25.90;98.00;;;;;;4934907;29;20127;-68
2023/07/19 08:00:54;;;;;;;6.45;1.63;;;25.70;98.30;;;;;;4934649;29;20040;-68
2023/07/19 08:03:20;;;;;;;7.78;2.28;;;25.70;98.50;;;;;;4931107;29;20044;-69
2023/07/19 08:05:46;;;;;;;5.70;1.90;;;26.10;98.00;;;;;;4934872;29;20055;-68
2023/07/19 08:08:11;;;;;;;7.20;2.42;;;26.40;97.40;;;;;;4938583;29;20031;-68
2023/07/19 08:10:38;;;;;;;6.10;2.10;;;26.70;96.90;;;;;;4953352;29;20039;-68
2023/07/19 08:13:04;;;;;;;5.30;2.28;;;26.80;96.80;;;;;;4953689;28;20031;-68
2023/07/19 08:15:30;;;;;;;11.05;3.33;;;26.90;96.50;;;;;;4954182;28;20027;-68
2023/07/19 08:17:55;;;;;;;7.03;2.25;;;27.00;96.70;;;;;;4941396;29;20090;-69
2023/07/19 08:20:21;;;;;;;8.88;2.67;;;27.20;96.50;;;;;;4954204;29;20031;-68
2023/07/19 08:22:47;;;;;;;6.97;1.88;;;27.60;96.10;;;;;;4953846;29;20089;-68
2023/07/19 08:25:16;;;;;;;7.72;1.88;;;28.00;96.10;;;;;;4954197;29;20039;-68
2023/07/19 08:27:42;;;;;;;5.53;1.98;;;28.10;95.30;;;;;;4954077;28;20078;-68
2023/07/19 08:30:15;;;;;;;5.65;2.00;;;27.90;95.00;;;;;;4953746;28;20078;-68
2023/07/19 08:32:44;;;;;;;7.68;1.85;;;27.50;95.20;;;;;;4954005;28;20062;-69
2023/07/19 08:35:10;;;;;;;5.65;2.22;;;27.20;95.40;;;;;;4954923;28;20034;-68
2023/07/19 08:37:35;;;;;;;6.97;1.60;;;26.80;95.90;;;;;;4957691;29;20105;-68
2023/07/19 08:40:01;;;;;;;8.57;1.85;;;26.60;96.10;;;;;;4957424;29;20055;-68
2023/07/19 08:42:27;;;;;;;5.70;1.70;;;26.30;96.50;;;;;;4956308;29;20034;-69
2023/07/19 08:44:54;;;;;;;8.25;2.42;;;26.20;96.50;;;;;;4937119;29;20034;-68
2023/07/19 08:47:20;;;;;;;5.40;1.90;;;26.10;96.90;;;;;;4936979;29;20035;-69
2023/07/19 08:49:46;;;;;;;5.07;1.73;;;26.20;97.20;;;;;;4937075;29;20380;-68
2023/07/19 08:52:12;;;;;;;3.60;1.42;;;26.30;96.90;;;;;;4938067;29;20031;-69
2023/07/19 08:54:38;;;;;;;4.20;1.73;;;26.40;96.80;;;;;;4936762;29;20024;-68
2023/07/19 08:57:05;;;;;;;4.38;1.63;;;26.30;97.30;;;;;;4937043;29;20376;-69
2023/07/19 08:59:31;;;;;;;4.18;1.40;;;26.20;97.60;;;;;;4936003;29;20075;-69
2023/07/19 09:01:56;;;;;;;4.00;1.50;;;26.10;97.80;;;;;;4937050;29;20028;-69
2023/07/19 09:04:22;;;;;;;5.60;1.65;;;26.30;97.60;;;;;;4937896;29;20087;-68
2023/07/19 09:06:48;;;;;;;4.88;2.00;;;26.50;97.00;;;;;;4937994;29;20095;-68
2023/07/19 09:09:16;;;;;;;7.30;1.73;;;26.70;96.10;;;;;;4937875;29;20424;-70
2023/07/19 09:11:45;;;;;;;5.63;1.70;;;26.90;95.50;;;;;;4937570;29;20126;-68
2023/07/19 09:14:11;;;;;;;5.82;1.70;;;26.90;95.10;;;;;;4937102;29;20035;-68
2023/07/19 09:16:37;;;;;;;3.83;1.30;;;26.90;95.10;;;;;;4936715;29;20027;-68
2023/07/19 09:19:03;;;;;;;4.85;1.60;;;26.80;95.00;;;;;;4936943;29;20040;-69
2023/07/19 09:21:45;;;;;;;8.10;1.92;;;26.70;95.00;;;;;;4937422;29;20467;-69
2023/07/19 09:24:11;;;;;;;6.28;1.42;;;26.70;95.00;;;;;;4936994;29;20051;-69
2023/07/19 09:26:51;;;;;;;6.20;1.65;;;26.70;95.10;;;;;;4956431;28;20082;-69
2023/07/19 09:29:20;;;;;;;4.43;1.80;;;26.70;95.00;;;;;;4956288;28;20035;-69
2023/07/19 09:31:57;;;;;;;4.80;1.30;;;26.90;95.10;;;;;;4943355;28;20086;-69
2023/07/19 09:34:27;;;;;;;5.95;1.38;;;27.10;94.90;;;;;;4937680;29;20036;-69
2023/07/19 09:36:53;;;;;;;4.95;1.92;;;27.20;94.70;;;;;;4937516;29;20046;-69
2023/07/19 09:39:19;;;;;;;7.97;1.65;;;27.30;94.60;;;;;;4937442;29;20476;-69
2023/07/19 09:41:45;;;;;;;3.78;1.40;;;27.40;94.60;;;;;;4936164;29;20384;-69
2023/07/19 09:44:15;;;;;;;2.85;1.30;;;27.70;94.20;;;;;;4937194;29;20530;-70
2023/07/19 09:46:42;;;;;;;5.47;1.75;;;27.80;93.90;;;;;;4936198;29;20032;-68
2023/07/19 09:49:08;;;;;;;5.60;1.83;;;28.00;94.20;;;;;;4937001;29;20035;-69
2023/07/19 09:51:35;;;;;;;5.28;1.80;;;28.10;94.40;;;;;;4937326;29;20038;-69
2023/07/19 09:54:05;;;;;;;5.28;1.90;;;28.30;94.30;;;;;;4937158;29;20036;-69
2023/07/19 09:56:31;;;;;;;5.15;1.50;;;28.40;94.00;;;;;;4937363;29;20468;-69
2023/07/19 09:58:57;;;;;;;9.35;2.00;;;28.50;94.20;;;;;;4937046;29;20090;-70
2023/07/19 10:01:24;;;;;;;4.25;1.55;;;28.50;94.10;;;;;;4930709;29;20464;-70
2023/07/19 10:03:50;;;;;;;3.88;1.60;;;28.30;94.20;;;;;;4936675;29;20106;-70
2023/07/19 10:06:15;;;;;;;6.40;1.70;;;28.20;94.60;;;;;;4952905;28;20031;-69
2023/07/19 10:08:41;;;;;;;6.93;2.08;;;28.00;94.80;;;;;;4956184;29;20027;-68
2023/07/19 10:11:19;;;;;;;8.32;2.72;;;28.00;94.70;;;;;;4954235;29;20368;-69
2023/07/19 10:13:53;;;;;;;8.80;2.80;;;28.10;94.80;;;;;;4955859;28;20114;-69
2023/07/19 10:16:26;;;;;;;7.95;2.20;;;28.30;94.60;;;;;;4955865;28;20035;-69
2023/07/19 10:19:11;;;;;;;4.45;2.30;;;28.70;94.20;;;;;;4955683;28;20075;-69
2023/07/19 10:21:37;;;;;;;8.55;2.95;;;29.10;93.80;;;;;;4955975;28;20031;-69
2023/07/19 10:24:08;;;;;;;5.03;1.75;;;29.60;93.20;;;;;;4955469;28;20034;-69
2023/07/19 10:26:35;;;;;;;;;;;30.10;92.60;;;;;;4956114;28;20062;-69
2023/07/19 10:29:01;;;;;;;5.13;1.77;;;30.70;91.60;;;;;;4955834;28;19957;-69
2023/07/19 10:31:26;;;;;;;6.25;2.22;;;31.00;91.10;;;;;;4939870;28;20031;-69
2023/07/19 10:33:56;;;;;;;8.15;1.95;;;31.20;90.70;;;;;;4936351;29;20476;-69
2023/07/19 10:36:21;;;;;;;4.75;1.40;;;31.20;90.60;;;;;;4949878;29;20062;-69
2023/07/19 10:38:47;;;;;;;4.47;1.45;;;31.30;90.50;;;;;;4955810;29;20476;-69
2023/07/19 10:41:15;;;;;;;5.55;2.50;;;31.50;90.00;;;;;;4955259;29;20411;-69
2023/07/19 10:43:41;;;;;;;3.10;1.60;;;31.60;89.80;;;;;;4955612;28;20027;-70
2023/07/19 10:46:08;;;;;;;4.63;2.35;;;31.70;89.40;;;;;;4955297;28;20035;-70
2023/07/19 10:48:35;;;;;;;9.43;3.63;;;32.00;89.10;;;;;;4955317;28;20043;-70
2023/07/19 10:51:10;;;;;;;6.03;1.48;;;32.90;87.30;;;;;;4955272;28;20122;-70
2023/07/19 10:53:43;;;;;;;5.78;2.15;;;33.70;85.10;;;;;;4955240;28;20030;-70
2023/07/19 10:56:08;;;;;;;9.30;2.67;;;33.80;84.80;;;;;;4954175;28;20118;-70
2023/07/19 10:58:34;;;;;;;4.72;2.15;;;33.80;84.00;;;;;;4953298;28;20130;-70
2023/07/19 11:01:01;;;;;;;7.53;2.92;;;34.10;83.50;;;;;;4953643;29;20038;-69
2023/07/19 11:03:27;;;;;;;3.72;1.40;;;34.10;82.40;;;;;;4943006;28;20031;-68
2023/07/19 11:05:53;;;;;;;5.95;2.40;;;34.10;82.20;;;;;;4935752;29;20082;-69
2023/07/19 11:08:26;;;;;;;6.68;2.83;;;34.10;81.50;;;;;;4935802;29;20078;-70
2023/07/19 11:10:55;;;;;;;3.92;2.20;;;34.10;81.10;;;;;;4935933;29;20031;-70
2023/07/19 11:13:23;;;;;;;5.25;1.83;;;33.80;81.20;;;;;;4935665;29;20167;-71
2023/07/19 11:15:54;;;;;;;5.35;2.15;;;33.70;81.40;;;;;;4935510;29;20027;-70
2023/07/19 11:18:30;;;;;;;8.27;2.87;;;34.30;80.60;;;;;;4935625;29;20039;-70
2023/07/19 11:20:57;;;;;;;3.03;1.40;;;34.40;79.70;;;;;;4934327;29;20043;-71
2023/07/19 11:23:24;;;;;;;6.82;2.70;;;34.30;79.70;;;;;;4935390;29;20527;-72
2023/07/19 11:25:50;;;;;;;5.68;2.08;;;34.20;79.30;;;;;;4935535;29;20046;-70
2023/07/19 11:28:44;;;;;;;5.75;1.92;;;34.20;79.80;;;;;;4935286;29;20031;-70
2023/07/19 11:31:25;;;;;;;3.50;1.48;;;35.20;78.90;;;;;;4935346;29;20024;-71
2023/07/19 11:33:57;;;;;;;5.70;2.10;;;35.70;78.10;;;;;;4935314;29;20042;-70
2023/07/19 11:36:23;;;;;;;4.35;1.50;;;35.90;78.20;;;;;;4935071;29;20060;-71
2023/07/19 11:38:49;;;;;;;6.63;1.98;;;35.90;77.40;;;;;;4935246;29;20095;-71
2023/07/19 11:41:19;;;;;;;7.78;2.10;;;35.40;77.40;;;;;;4934904;29;20031;-71
2023/07/19 11:43:48;;;;;;;6.15;1.88;;;34.80;77.90;;;;;;4935121;29;20097;-71
2023/07/19 11:46:14;;;;;;;6.82;2.00;;;34.50;79.00;;;;;;4934990;29;20040;-71
2023/07/19 11:48:40;;;;;;;4.43;1.60;;;34.20;79.40;;;;;;4934778;29;20455;-70
2023/07/19 11:51:05;;;;;;;3.80;1.63;;;33.80;79.10;;;;;;4934614;29;20060;-71
2023/07/19 11:53:31;;;;;;;4.20;1.40;;;33.40;80.20;;;;;;4935127;29;20071;-71
2023/07/19 11:55:56;;;;;;;5.72;1.60;;;33.10;80.40;;;;;;4933802;29;20028;-70
2023/07/19 11:58:23;;;;;;;4.78;1.48;;;32.50;80.00;;;;;;4934651;29;20521;-71
2023/07/19 12:00:48;;;;;;;2.83;1.08;;;32.00;79.90;;;;;;4938405;29;20036;-71
2023/07/19 12:03:14;;;;;;;6.03;2.20;;;31.70;80.30;;;;;;4954393;29;20038;-71
2023/07/19 12:05:40;;;;;;;7.43;1.70;;;31.70;81.30;;;;;;4954103;29;20027;-70
2023/07/19 12:08:06;;;;;;;3.72;1.45;;;31.80;81.80;;;;;;4954107;28;20463;-70
2023/07/19 12:10:32;;;;;;;4.60;1.70;;;31.80;82.10;;;;;;4955781;28;20063;-71
2023/07/19 12:12:57;;;;;;;5.70;1.73;;;32.00;82.50;;;;;;4948579;28;20110;-71
2023/07/19 12:15:23;;;;;;;4.10;1.65;;;32.10;82.10;;;;;;4937652;29;20060;-71
2023/07/19 12:17:49;;;;;;;4.63;1.58;;;32.20;82.70;;;;;;4944763;29;20035;-71
2023/07/19 12:20:15;;;;;;;4.97;1.75;;;32.10;82.40;;;;;;4957985;28;20162;-70
2023/07/19 12:22:42;;;;;;;6.47;1.67;;;32.20;82.30;;;;;;4958003;28;20037;-70
2023/07/19 12:25:09;;;;;;;6.75;1.40;;;32.10;81.60;;;;;;4957500;28;20033;-71
2023/07/19 12:27:35;;;;;;;5.05;1.48;;;32.50;81.10;;;;;;4957930;28;20037;-71
2023/07/19 12:30:00;;;;;;;4.82;1.50;;;32.90;80.00;;;;;;4957481;28;20027;-70
2023/07/19 12:32:26;;;;;;;5.68;1.67;;;32.80;80.70;;;;;;4957365;29;20034;-70
2023/07/19 12:34:52;;;;;;;5.63;1.83;;;33.10;80.50;;;;;;4957902;29;20470;-72
2023/07/19 12:37:18;;;;;;;4.95;1.75;;;33.40;80.20;;;;;;4957650;28;20031;-70
2023/07/19 12:39:44;;;;;;;5.00;1.88;;;32.80;80.00;;;;;;4957373;28;20043;-72
2023/07/19 12:42:11;;;;;;;3.70;1.23;;;32.70;80.50;;;;;;4957375;28;20085;-71